sensor_id;sensor_type;location;lat;lon;timestamp;temperature;humidity
27072;DHT22;14613;46.308;25.288;2023-05-07T00:01:53;14.70;60.60
27072;DHT22;14613;46.308;25.288;2023-05-07T00:04:19;14.70;60.80
27072;DHT22;14613;46.308;25.288;2023-05-07T00:06:46;14.70;60.80
27072;DHT22;14613;46.308;25.288;2023-05-07T00:09:11;14.70;60.80
27072;DHT22;14613;46.308;25.288;2023-05-07T00:11:38;14.70;60.80
27072;DHT22;14613;46.308;25.288;2023-05-07T00:14:03;14.80;60.80
27072;DHT22;14613;46.308;25.288;2023-05-07T00:16:29;14.70;60.90
27072;DHT22;14613;46.308;25.288;2023-05-07T00:18:55;14.70;61.30
27072;DHT22;14613;46.308;25.288;2023-05-07T00:21:21;14.60;61.50
27072;DHT22;14613;46.308;25.288;2023-05-07T00:23:47;14.50;61.90
27072;DHT22;14613;46.308;25.288;2023-05-07T00:26:13;14.50;62.00
27072;DHT22;14613;46.308;25.288;2023-05-07T00:28:38;14.60;62.00
27072;DHT22;14613;46.308;25.288;2023-05-07T00:31:04;14.60;61.80
27072;DHT22;14613;46.308;25.288;2023-05-07T00:33:30;14.70;61.70
27072;DHT22;14613;46.308;25.288;2023-05-07T00:35:56;14.70;61.70
27072;DHT22;14613;46.308;25.288;2023-05-07T00:38:22;14.80;61.70
27072;DHT22;14613;46.308;25.288;2023-05-07T00:40:48;14.80;61.50
27072;DHT22;14613;46.308;25.288;2023-05-07T00:43:13;14.80;61.60
27072;DHT22;14613;46.308;25.288;2023-05-07T00:45:40;14.90;61.70
27072;DHT22;14613;46.308;25.288;2023-05-07T00:48:06;14.90;61.70
27072;DHT22;14613;46.308;25.288;2023-05-07T00:50:32;14.90;61.70
27072;DHT22;14613;46.308;25.288;2023-05-07T00:52:59;14.90;61.80
27072;DHT22;14613;46.308;25.288;2023-05-07T00:55:25;14.90;61.80
27072;DHT22;14613;46.308;25.288;2023-05-07T00:57:51;14.90;61.80
27072;DHT22;14613;46.308;25.288;2023-05-07T01:00:17;14.90;61.90
27072;DHT22;14613;46.308;25.288;2023-05-07T01:02:44;14.90;62.00
27072;DHT22;14613;46.308;25.288;2023-05-07T01:05:12;14.90;62.10
27072;DHT22;14613;46.308;25.288;2023-05-07T01:07:40;14.90;62.10
27072;DHT22;14613;46.308;25.288;2023-05-07T01:10:07;14.90;62.30
27072;DHT22;14613;46.308;25.288;2023-05-07T01:12:34;14.90;62.50
27072;DHT22;14613;46.308;25.288;2023-05-07T01:15:01;14.90;62.50
27072;DHT22;14613;46.308;25.288;2023-05-07T01:17:26;14.90;62.60
27072;DHT22;14613;46.308;25.288;2023-05-07T01:19:52;14.90;62.60
27072;DHT22;14613;46.308;25.288;2023-05-07T01:22:35;14.80;62.80
27072;DHT22;14613;46.308;25.288;2023-05-07T01:25:05;14.80;63.10
27072;DHT22;14613;46.308;25.288;2023-05-07T01:27:31;14.70;63.20
27072;DHT22;14613;46.308;25.288;2023-05-07T01:29:59;14.70;63.30
27072;DHT22;14613;46.308;25.288;2023-05-07T01:35:05;14.80;63.40
27072;DHT22;14613;46.308;25.288;2023-05-07T01:37:33;14.80;63.50
27072;DHT22;14613;46.308;25.288;2023-05-07T01:39:59;14.80;63.60
27072;DHT22;14613;46.308;25.288;2023-05-07T01:42:26;14.70;63.70
27072;DHT22;14613;46.308;25.288;2023-05-07T01:44:52;14.60;64.00
27072;DHT22;14613;46.308;25.288;2023-05-07T01:47:19;14.60;64.20
27072;DHT22;14613;46.308;25.288;2023-05-07T01:49:46;14.70;64.40
27072;DHT22;14613;46.308;25.288;2023-05-07T01:52:12;14.60;64.40
27072;DHT22;14613;46.308;25.288;2023-05-07T01:54:38;14.60;64.60
27072;DHT22;14613;46.308;25.288;2023-05-07T01:57:04;14.50;64.80
27072;DHT22;14613;46.308;25.288;2023-05-07T01:59:29;14.50;64.90
27072;DHT22;14613;46.308;25.288;2023-05-07T02:01:55;14.50;65.20
27072;DHT22;14613;46.308;25.288;2023-05-07T02:04:21;14.40;65.40
27072;DHT22;14613;46.308;25.288;2023-05-07T02:06:47;14.50;65.60
27072;DHT22;14613;46.308;25.288;2023-05-07T02:09:13;14.50;65.40
27072;DHT22;14613;46.308;25.288;2023-05-07T02:11:40;14.50;65.40
27072;DHT22;14613;46.308;25.288;2023-05-07T02:14:06;14.50;65.30
27072;DHT22;14613;46.308;25.288;2023-05-07T02:16:31;14.60;65.40
27072;DHT22;14613;46.308;25.288;2023-05-07T02:18:57;14.60;65.40
27072;DHT22;14613;46.308;25.288;2023-05-07T02:21:24;14.60;65.50
27072;DHT22;14613;46.308;25.288;2023-05-07T02:23:50;14.50;65.60
27072;DHT22;14613;46.308;25.288;2023-05-07T02:26:16;14.50;65.90
27072;DHT22;14613;46.308;25.288;2023-05-07T02:28:42;14.50;66.10
27072;DHT22;14613;46.308;25.288;2023-05-07T02:31:08;14.40;66.20
27072;DHT22;14613;46.308;25.288;2023-05-07T02:33:33;14.40;66.30
27072;DHT22;14613;46.308;25.288;2023-05-07T02:36:10;14.40;66.40
27072;DHT22;14613;46.308;25.288;2023-05-07T02:38:37;14.40;66.50
27072;DHT22;14613;46.308;25.288;2023-05-07T02:41:03;14.40;66.50
27072;DHT22;14613;46.308;25.288;2023-05-07T02:43:28;14.40;66.50
27072;DHT22;14613;46.308;25.288;2023-05-07T02:46:05;14.40;66.60
27072;DHT22;14613;46.308;25.288;2023-05-07T02:48:31;14.50;66.70
27072;DHT22;14613;46.308;25.288;2023-05-07T02:50:58;14.50;66.70
27072;DHT22;14613;46.308;25.288;2023-05-07T02:53:24;14.50;66.70
27072;DHT22;14613;46.308;25.288;2023-05-07T02:55:53;14.50;66.70
27072;DHT22;14613;46.308;25.288;2023-05-07T02:58:19;14.60;66.80
27072;DHT22;14613;46.308;25.288;2023-05-07T03:00:45;14.60;66.90
27072;DHT22;14613;46.308;25.288;2023-05-07T03:03:11;14.50;67.00
27072;DHT22;14613;46.308;25.288;2023-05-07T03:05:37;14.60;67.20
27072;DHT22;14613;46.308;25.288;2023-05-07T03:08:03;14.50;67.30
27072;DHT22;14613;46.308;25.288;2023-05-07T03:10:29;14.50;67.40
27072;DHT22;14613;46.308;25.288;2023-05-07T03:12:55;14.50;67.50
27072;DHT22;14613;46.308;25.288;2023-05-07T03:15:21;14.60;67.60
27072;DHT22;14613;46.308;25.288;2023-05-07T03:17:48;14.60;67.60
27072;DHT22;14613;46.308;25.288;2023-05-07T03:20:14;14.50;67.60
27072;DHT22;14613;46.308;25.288;2023-05-07T03:22:39;14.60;67.70
27072;DHT22;14613;46.308;25.288;2023-05-07T03:25:06;14.50;67.70
27072;DHT22;14613;46.308;25.288;2023-05-07T03:27:32;14.60;67.80
27072;DHT22;14613;46.308;25.288;2023-05-07T03:29:58;14.60;67.80
27072;DHT22;14613;46.308;25.288;2023-05-07T03:32:23;14.60;67.80
27072;DHT22;14613;46.308;25.288;2023-05-07T03:34:50;14.50;67.90
27072;DHT22;14613;46.308;25.288;2023-05-07T03:37:16;14.50;68.00
27072;DHT22;14613;46.308;25.288;2023-05-07T03:39:41;14.50;68.10
27072;DHT22;14613;46.308;25.288;2023-05-07T03:42:07;14.50;68.10
27072;DHT22;14613;46.308;25.288;2023-05-07T03:44:33;14.60;68.20
27072;DHT22;14613;46.308;25.288;2023-05-07T03:46:59;14.60;68.20
27072;DHT22;14613;46.308;25.288;2023-05-07T03:49:25;14.60;68.20
27072;DHT22;14613;46.308;25.288;2023-05-07T03:51:50;14.60;68.20
27072;DHT22;14613;46.308;25.288;2023-05-07T03:54:16;14.60;68.20
27072;DHT22;14613;46.308;25.288;2023-05-07T03:56:42;14.60;68.20
27072;DHT22;14613;46.308;25.288;2023-05-07T03:59:08;14.60;68.20
27072;DHT22;14613;46.308;25.288;2023-05-07T04:01:34;14.70;68.30
27072;DHT22;14613;46.308;25.288;2023-05-07T04:03:59;14.70;68.20
27072;DHT22;14613;46.308;25.288;2023-05-07T04:06:25;14.70;68.20
27072;DHT22;14613;46.308;25.288;2023-05-07T04:08:51;14.70;68.20
27072;DHT22;14613;46.308;25.288;2023-05-07T04:11:17;14.80;68.20
27072;DHT22;14613;46.308;25.288;2023-05-07T04:13:42;14.80;68.10
27072;DHT22;14613;46.308;25.288;2023-05-07T04:16:08;14.80;68.90
27072;DHT22;14613;46.308;25.288;2023-05-07T04:18:34;14.70;68.20
27072;DHT22;14613;46.308;25.288;2023-05-07T04:21:00;14.70;68.30
27072;DHT22;14613;46.308;25.288;2023-05-07T04:23:25;14.70;68.40
27072;DHT22;14613;46.308;25.288;2023-05-07T04:25:51;14.70;68.40
27072;DHT22;14613;46.308;25.288;2023-05-07T04:28:17;14.70;68.50
27072;DHT22;14613;46.308;25.288;2023-05-07T04:30:43;14.80;68.50
27072;DHT22;14613;46.308;25.288;2023-05-07T04:33:09;14.80;68.50
27072;DHT22;14613;46.308;25.288;2023-05-07T04:35:35;14.90;68.50
27072;DHT22;14613;46.308;25.288;2023-05-07T04:38:01;14.90;68.50
27072;DHT22;14613;46.308;25.288;2023-05-07T04:40:27;14.90;68.60
27072;DHT22;14613;46.308;25.288;2023-05-07T04:42:53;14.90;68.70
27072;DHT22;14613;46.308;25.288;2023-05-07T04:45:19;15.00;69.60
27072;DHT22;14613;46.308;25.288;2023-05-07T04:47:45;15.00;68.70
27072;DHT22;14613;46.308;25.288;2023-05-07T04:50:11;15.00;68.50
27072;DHT22;14613;46.308;25.288;2023-05-07T04:52:37;15.00;68.70
27072;DHT22;14613;46.308;25.288;2023-05-07T04:55:03;15.00;68.70
27072;DHT22;14613;46.308;25.288;2023-05-07T04:57:29;14.90;68.80
27072;DHT22;14613;46.308;25.288;2023-05-07T04:59:54;14.90;69.10
27072;DHT22;14613;46.308;25.288;2023-05-07T05:02:20;14.80;69.30
27072;DHT22;14613;46.308;25.288;2023-05-07T05:04:46;14.70;69.60
27072;DHT22;14613;46.308;25.288;2023-05-07T05:07:12;14.70;69.90
27072;DHT22;14613;46.308;25.288;2023-05-07T05:09:37;14.70;69.90
27072;DHT22;14613;46.308;25.288;2023-05-07T05:12:03;14.80;69.90
27072;DHT22;14613;46.308;25.288;2023-05-07T05:14:32;14.90;69.70
27072;DHT22;14613;46.308;25.288;2023-05-07T05:16:58;15.00;69.60
27072;DHT22;14613;46.308;25.288;2023-05-07T05:19:24;15.10;69.40
27072;DHT22;14613;46.308;25.288;2023-05-07T05:21:50;15.20;69.40
27072;DHT22;14613;46.308;25.288;2023-05-07T05:24:16;15.30;69.30
27072;DHT22;14613;46.308;25.288;2023-05-07T05:26:41;15.40;69.10
27072;DHT22;14613;46.308;25.288;2023-05-07T05:29:07;15.60;69.00
27072;DHT22;14613;46.308;25.288;2023-05-07T05:31:33;15.70;68.80
27072;DHT22;14613;46.308;25.288;2023-05-07T05:33:59;15.80;68.60
27072;DHT22;14613;46.308;25.288;2023-05-07T05:36:25;15.90;68.40
27072;DHT22;14613;46.308;25.288;2023-05-07T05:38:51;15.90;68.40
27072;DHT22;14613;46.308;25.288;2023-05-07T05:41:17;16.00;68.40
27072;DHT22;14613;46.308;25.288;2023-05-07T05:43:42;16.10;68.10
27072;DHT22;14613;46.308;25.288;2023-05-07T05:46:08;16.20;68.10
27072;DHT22;14613;46.308;25.288;2023-05-07T05:48:37;16.30;68.00
27072;DHT22;14613;46.308;25.288;2023-05-07T05:51:02;16.30;67.80
27072;DHT22;14613;46.308;25.288;2023-05-07T05:53:28;16.40;67.80
27072;DHT22;14613;46.308;25.288;2023-05-07T05:55:54;16.40;67.80
27072;DHT22;14613;46.308;25.288;2023-05-07T05:58:20;16.40;68.60
27072;DHT22;14613;46.308;25.288;2023-05-07T06:00:46;16.50;67.80
27072;DHT22;14613;46.308;25.288;2023-05-07T06:03:13;16.60;67.70
27072;DHT22;14613;46.308;25.288;2023-05-07T06:05:39;16.70;67.30
27072;DHT22;14613;46.308;25.288;2023-05-07T06:08:05;16.70;67.10
27072;DHT22;14613;46.308;25.288;2023-05-07T06:10:31;16.70;67.10
27072;DHT22;14613;46.308;25.288;2023-05-07T06:12:56;16.70;67.10
27072;DHT22;14613;46.308;25.288;2023-05-07T06:15:22;16.90;67.10
27072;DHT22;14613;46.308;25.288;2023-05-07T06:17:48;17.00;66.80
27072;DHT22;14613;46.308;25.288;2023-05-07T06:20:14;17.10;66.40
27072;DHT22;14613;46.308;25.288;2023-05-07T06:22:40;17.30;66.20
27072;DHT22;14613;46.308;25.288;2023-05-07T06:25:06;17.40;66.00
27072;DHT22;14613;46.308;25.288;2023-05-07T06:27:32;17.50;65.70
27072;DHT22;14613;46.308;25.288;2023-05-07T06:29:58;17.50;65.40
27072;DHT22;14613;46.308;25.288;2023-05-07T06:32:24;17.70;65.40
27072;DHT22;14613;46.308;25.288;2023-05-07T06:34:49;17.80;65.30
27072;DHT22;14613;46.308;25.288;2023-05-07T06:37:15;17.90;65.10
27072;DHT22;14613;46.308;25.288;2023-05-07T06:39:41;18.10;65.00
27072;DHT22;14613;46.308;25.288;2023-05-07T06:42:07;18.30;64.80
27072;DHT22;14613;46.308;25.288;2023-05-07T06:44:32;18.50;64.50
27072;DHT22;14613;46.308;25.288;2023-05-07T06:46:58;18.70;64.10
27072;DHT22;14613;46.308;25.288;2023-05-07T06:49:24;18.90;63.80
27072;DHT22;14613;46.308;25.288;2023-05-07T06:51:50;19.00;63.50
27072;DHT22;14613;46.308;25.288;2023-05-07T06:54:16;19.20;63.20
27072;DHT22;14613;46.308;25.288;2023-05-07T06:56:42;19.40;63.00
27072;DHT22;14613;46.308;25.288;2023-05-07T06:59:08;19.50;62.60
27072;DHT22;14613;46.308;25.288;2023-05-07T07:01:33;19.70;62.40
27072;DHT22;14613;46.308;25.288;2023-05-07T07:03:59;19.90;62.10
27072;DHT22;14613;46.308;25.288;2023-05-07T07:06:26;20.00;61.70
27072;DHT22;14613;46.308;25.288;2023-05-07T07:08:52;20.10;61.40
27072;DHT22;14613;46.308;25.288;2023-05-07T07:11:18;20.20;61.30
27072;DHT22;14613;46.308;25.288;2023-05-07T07:13:44;20.30;61.10
27072;DHT22;14613;46.308;25.288;2023-05-07T07:16:09;20.30;60.80
27072;DHT22;14613;46.308;25.288;2023-05-07T07:18:35;20.40;60.60
27072;DHT22;14613;46.308;25.288;2023-05-07T07:21:01;20.50;60.40
27072;DHT22;14613;46.308;25.288;2023-05-07T07:23:27;20.60;60.30
27072;DHT22;14613;46.308;25.288;2023-05-07T07:25:52;20.70;60.00
27072;DHT22;14613;46.308;25.288;2023-05-07T07:28:20;20.80;59.70
27072;DHT22;14613;46.308;25.288;2023-05-07T07:30:46;20.80;59.60
27072;DHT22;14613;46.308;25.288;2023-05-07T07:33:12;20.80;59.50
27072;DHT22;14613;46.308;25.288;2023-05-07T07:35:38;20.90;59.50
27072;DHT22;14613;46.308;25.288;2023-05-07T07:38:04;20.90;59.20
27072;DHT22;14613;46.308;25.288;2023-05-07T07:40:29;21.00;59.20
27072;DHT22;14613;46.308;25.288;2023-05-07T07:42:57;21.00;59.00
27072;DHT22;14613;46.308;25.288;2023-05-07T07:45:22;21.00;58.80
27072;DHT22;14613;46.308;25.288;2023-05-07T07:47:48;21.00;58.70
27072;DHT22;14613;46.308;25.288;2023-05-07T07:50:14;21.10;58.80
27072;DHT22;14613;46.308;25.288;2023-05-07T07:52:40;21.10;58.80
27072;DHT22;14613;46.308;25.288;2023-05-07T07:55:06;21.20;58.70
27072;DHT22;14613;46.308;25.288;2023-05-07T07:57:33;21.20;58.50
27072;DHT22;14613;46.308;25.288;2023-05-07T07:59:58;21.30;58.50
27072;DHT22;14613;46.308;25.288;2023-05-07T08:02:24;21.30;58.50
27072;DHT22;14613;46.308;25.288;2023-05-07T08:04:50;21.30;58.50
27072;DHT22;14613;46.308;25.288;2023-05-07T08:07:16;21.40;58.30
27072;DHT22;14613;46.308;25.288;2023-05-07T08:09:46;21.50;58.30
27072;DHT22;14613;46.308;25.288;2023-05-07T08:12:12;21.50;58.20
27072;DHT22;14613;46.308;25.288;2023-05-07T08:14:38;21.60;58.20
27072;DHT22;14613;46.308;25.288;2023-05-07T08:17:04;21.70;58.10
27072;DHT22;14613;46.308;25.288;2023-05-07T08:19:30;21.80;58.00
27072;DHT22;14613;46.308;25.288;2023-05-07T08:21:56;22.00;58.00
27072;DHT22;14613;46.308;25.288;2023-05-07T08:24:22;22.20;57.80
27072;DHT22;14613;46.308;25.288;2023-05-07T08:26:47;22.40;57.50
27072;DHT22;14613;46.308;25.288;2023-05-07T08:29:15;22.60;57.00
27072;DHT22;14613;46.308;25.288;2023-05-07T08:31:40;22.60;56.60
27072;DHT22;14613;46.308;25.288;2023-05-07T08:34:06;22.60;56.20
27072;DHT22;14613;46.308;25.288;2023-05-07T08:36:32;22.50;56.00
27072;DHT22;14613;46.308;25.288;2023-05-07T08:38:59;22.50;56.00
27072;DHT22;14613;46.308;25.288;2023-05-07T08:41:25;22.40;56.00
27072;DHT22;14613;46.308;25.288;2023-05-07T08:43:51;22.40;56.00
27072;DHT22;14613;46.308;25.288;2023-05-07T08:46:19;22.40;55.60
27072;DHT22;14613;46.308;25.288;2023-05-07T08:48:47;22.30;54.80
27072;DHT22;14613;46.308;25.288;2023-05-07T08:51:15;22.00;54.80
27072;DHT22;14613;46.308;25.288;2023-05-07T08:53:42;22.00;55.20
27072;DHT22;14613;46.308;25.288;2023-05-07T08:56:11;22.00;55.20
27072;DHT22;14613;46.308;25.288;2023-05-07T08:58:37;22.10;55.20
27072;DHT22;14613;46.308;25.288;2023-05-07T09:01:07;22.20;55.20
27072;DHT22;14613;46.308;25.288;2023-05-07T09:03:34;22.40;54.90
27072;DHT22;14613;46.308;25.288;2023-05-07T09:05:59;22.50;54.60
27072;DHT22;14613;46.308;25.288;2023-05-07T09:08:27;22.60;54.40
27072;DHT22;14613;46.308;25.288;2023-05-07T09:10:53;22.80;54.40
27072;DHT22;14613;46.308;25.288;2023-05-07T09:13:20;22.80;53.80
27072;DHT22;14613;46.308;25.288;2023-05-07T09:15:46;22.80;53.50
27072;DHT22;14613;46.308;25.288;2023-05-07T09:18:15;22.70;53.50
27072;DHT22;14613;46.308;25.288;2023-05-07T09:20:41;22.70;53.60
27072;DHT22;14613;46.308;25.288;2023-05-07T09:23:07;22.70;53.70
27072;DHT22;14613;46.308;25.288;2023-05-07T09:25:34;22.70;53.50
27072;DHT22;14613;46.308;25.288;2023-05-07T09:28:01;22.50;52.80
27072;DHT22;14613;46.308;25.288;2023-05-07T09:30:28;22.40;53.20
27072;DHT22;14613;46.308;25.288;2023-05-07T09:32:55;22.30;53.30
27072;DHT22;14613;46.308;25.288;2023-05-07T09:35:21;22.30;53.50
27072;DHT22;14613;46.308;25.288;2023-05-07T09:37:50;22.40;53.60
27072;DHT22;14613;46.308;25.288;2023-05-07T09:40:27;22.50;53.70
27072;DHT22;14613;46.308;25.288;2023-05-07T09:42:53;22.70;53.10
27072;DHT22;14613;46.308;25.288;2023-05-07T09:45:28;22.60;52.90
27072;DHT22;14613;46.308;25.288;2023-05-07T09:47:55;22.50;52.70
27072;DHT22;14613;46.308;25.288;2023-05-07T09:50:27;22.20;52.90
27072;DHT22;14613;46.308;25.288;2023-05-07T09:52:54;22.00;53.30
27072;DHT22;14613;46.308;25.288;2023-05-07T09:55:21;21.80;53.70
27072;DHT22;14613;46.308;25.288;2023-05-07T09:57:50;21.90;54.10
27072;DHT22;14613;46.308;25.288;2023-05-07T10:00:20;22.20;54.10
27072;DHT22;14613;46.308;25.288;2023-05-07T10:02:48;22.60;53.80
27072;DHT22;14613;46.308;25.288;2023-05-07T10:05:17;23.00;53.50
27072;DHT22;14613;46.308;25.288;2023-05-07T10:07:43;23.50;53.20
27072;DHT22;14613;46.308;25.288;2023-05-07T10:10:10;24.00;52.90
27072;DHT22;14613;46.308;25.288;2023-05-07T10:12:36;24.40;52.50
27072;DHT22;14613;46.308;25.288;2023-05-07T10:15:09;24.70;52.10
27072;DHT22;14613;46.308;25.288;2023-05-07T10:17:37;25.00;51.40
27072;DHT22;14613;46.308;25.288;2023-05-07T10:20:04;25.00;50.90
27072;DHT22;14613;46.308;25.288;2023-05-07T10:22:37;24.90;50.50
27072;DHT22;14613;46.308;25.288;2023-05-07T10:25:09;24.60;50.30
27072;DHT22;14613;46.308;25.288;2023-05-07T10:27:39;24.40;50.70
27072;DHT22;14613;46.308;25.288;2023-05-07T10:32:51;24.40;50.90
27072;DHT22;14613;46.308;25.288;2023-05-07T10:35:24;24.40;50.90
27072;DHT22;14613;46.308;25.288;2023-05-07T10:37:51;24.40;50.90
27072;DHT22;14613;46.308;25.288;2023-05-07T10:40:18;24.30;50.90
27072;DHT22;14613;46.308;25.288;2023-05-07T10:42:59;24.10;50.70
27072;DHT22;14613;46.308;25.288;2023-05-07T10:45:26;23.60;51.00
27072;DHT22;14613;46.308;25.288;2023-05-07T10:50:37;22.80;52.20
27072;DHT22;14613;46.308;25.288;2023-05-07T10:58:31;22.80;52.70
27072;DHT22;14613;46.308;25.288;2023-05-07T11:01:00;23.10;53.30
27072;DHT22;14613;46.308;25.288;2023-05-07T11:03:27;23.20;52.30
27072;DHT22;14613;46.308;25.288;2023-05-07T11:06:14;23.20;51.90
27072;DHT22;14613;46.308;25.288;2023-05-07T11:08:56;23.10;52.00
27072;DHT22;14613;46.308;25.288;2023-05-07T11:11:47;23.20;52.20
27072;DHT22;14613;46.308;25.288;2023-05-07T11:17:09;23.10;51.40
27072;DHT22;14613;46.308;25.288;2023-05-07T11:19:55;22.90;51.70
27072;DHT22;14613;46.308;25.288;2023-05-07T11:25:00;22.70;52.10
27072;DHT22;14613;46.308;25.288;2023-05-07T11:27:26;22.80;52.10
27072;DHT22;14613;46.308;25.288;2023-05-07T11:29:52;22.70;52.00
27072;DHT22;14613;46.308;25.288;2023-05-07T11:32:26;22.60;52.10
27072;DHT22;14613;46.308;25.288;2023-05-07T11:34:56;22.50;52.20
27072;DHT22;14613;46.308;25.288;2023-05-07T11:37:23;22.40;52.30
27072;DHT22;14613;46.308;25.288;2023-05-07T11:39:50;22.30;52.40
27072;DHT22;14613;46.308;25.288;2023-05-07T11:42:31;22.30;52.60
27072;DHT22;14613;46.308;25.288;2023-05-07T11:44:57;22.20;52.70
27072;DHT22;14613;46.308;25.288;2023-05-07T11:47:24;22.20;52.90
27072;DHT22;14613;46.308;25.288;2023-05-07T11:49:52;22.20;53.10
27072;DHT22;14613;46.308;25.288;2023-05-07T11:52:19;22.10;53.20
27072;DHT22;14613;46.308;25.288;2023-05-07T11:54:59;22.00;53.40
27072;DHT22;14613;46.308;25.288;2023-05-07T11:57:26;21.70;54.00
27072;DHT22;14613;46.308;25.288;2023-05-07T11:59:56;21.50;54.60
27072;DHT22;14613;46.308;25.288;2023-05-07T12:02:23;21.30;55.00
27072;DHT22;14613;46.308;25.288;2023-05-07T12:04:51;21.30;55.40
27072;DHT22;14613;46.308;25.288;2023-05-07T12:07:17;21.20;55.60
27072;DHT22;14613;46.308;25.288;2023-05-07T12:09:46;21.10;55.90
27072;DHT22;14613;46.308;25.288;2023-05-07T12:12:13;20.90;56.20
27072;DHT22;14613;46.308;25.288;2023-05-07T12:14:42;20.90;56.50
27072;DHT22;14613;46.308;25.288;2023-05-07T12:17:09;20.80;56.60
27072;DHT22;14613;46.308;25.288;2023-05-07T12:19:36;20.70;56.90
27072;DHT22;14613;46.308;25.288;2023-05-07T12:22:07;20.60;57.20
27072;DHT22;14613;46.308;25.288;2023-05-07T12:24:47;20.60;57.40
27072;DHT22;14613;46.308;25.288;2023-05-07T12:27:14;20.50;57.60
27072;DHT22;14613;46.308;25.288;2023-05-07T12:29:43;20.50;57.70
27072;DHT22;14613;46.308;25.288;2023-05-07T12:32:15;20.60;57.80
27072;DHT22;14613;46.308;25.288;2023-05-07T12:34:42;20.60;57.80
27072;DHT22;14613;46.308;25.288;2023-05-07T12:37:08;20.60;57.90
27072;DHT22;14613;46.308;25.288;2023-05-07T12:39:34;20.60;57.90
27072;DHT22;14613;46.308;25.288;2023-05-07T12:42:00;20.60;58.10
27072;DHT22;14613;46.308;25.288;2023-05-07T12:44:29;20.60;58.30
27072;DHT22;14613;46.308;25.288;2023-05-07T12:46:55;20.60;58.40
27072;DHT22;14613;46.308;25.288;2023-05-07T12:49:22;20.60;58.60
27072;DHT22;14613;46.308;25.288;2023-05-07T12:51:48;20.50;58.90
27072;DHT22;14613;46.308;25.288;2023-05-07T12:54:34;20.30;59.20
27072;DHT22;14613;46.308;25.288;2023-05-07T12:57:05;20.20;59.50
27072;DHT22;14613;46.308;25.288;2023-05-07T12:59:36;20.10;59.70
27072;DHT22;14613;46.308;25.288;2023-05-07T13:02:02;20.00;59.90
27072;DHT22;14613;46.308;25.288;2023-05-07T13:04:28;20.00;60.00
27072;DHT22;14613;46.308;25.288;2023-05-07T13:06:54;19.90;60.10
27072;DHT22;14613;46.308;25.288;2023-05-07T13:09:20;19.90;60.30
27072;DHT22;14613;46.308;25.288;2023-05-07T13:11:46;19.80;60.40
27072;DHT22;14613;46.308;25.288;2023-05-07T13:14:12;19.80;60.60
27072;DHT22;14613;46.308;25.288;2023-05-07T13:16:37;19.70;60.70
27072;DHT22;14613;46.308;25.288;2023-05-07T13:19:03;19.70;60.90
27072;DHT22;14613;46.308;25.288;2023-05-07T13:21:29;19.60;61.00
27072;DHT22;14613;46.308;25.288;2023-05-07T13:23:57;19.60;61.30
27072;DHT22;14613;46.308;25.288;2023-05-07T13:26:24;19.50;61.60
27072;DHT22;14613;46.308;25.288;2023-05-07T13:28:50;19.30;62.00
27072;DHT22;14613;46.308;25.288;2023-05-07T13:31:17;19.30;62.30
27072;DHT22;14613;46.308;25.288;2023-05-07T13:33:43;19.30;62.50
27072;DHT22;14613;46.308;25.288;2023-05-07T13:36:08;19.30;62.50
27072;DHT22;14613;46.308;25.288;2023-05-07T13:38:35;19.30;62.60
27072;DHT22;14613;46.308;25.288;2023-05-07T13:41:01;19.30;62.60
27072;DHT22;14613;46.308;25.288;2023-05-07T13:43:26;19.30;62.90
27072;DHT22;14613;46.308;25.288;2023-05-07T13:45:52;19.20;63.00
27072;DHT22;14613;46.308;25.288;2023-05-07T13:48:18;19.20;63.10
27072;DHT22;14613;46.308;25.288;2023-05-07T13:50:44;19.20;63.20
27072;DHT22;14613;46.308;25.288;2023-05-07T13:53:10;19.20;63.20
27072;DHT22;14613;46.308;25.288;2023-05-07T13:55:35;19.20;63.30
27072;DHT22;14613;46.308;25.288;2023-05-07T13:58:02;19.10;63.50
27072;DHT22;14613;46.308;25.288;2023-05-07T14:00:29;19.00;63.60
27072;DHT22;14613;46.308;25.288;2023-05-07T14:02:55;19.00;63.70
27072;DHT22;14613;46.308;25.288;2023-05-07T14:05:22;18.90;64.00
27072;DHT22;14613;46.308;25.288;2023-05-07T14:07:53;18.80;64.30
27072;DHT22;14613;46.308;25.288;2023-05-07T14:10:19;18.70;64.60
27072;DHT22;14613;46.308;25.288;2023-05-07T14:12:46;18.70;64.80
27072;DHT22;14613;46.308;25.288;2023-05-07T14:15:12;18.60;65.00
27072;DHT22;14613;46.308;25.288;2023-05-07T14:17:37;18.60;65.20
27072;DHT22;14613;46.308;25.288;2023-05-07T14:20:04;18.60;65.40
27072;DHT22;14613;46.308;25.288;2023-05-07T14:22:31;18.60;65.60
27072;DHT22;14613;46.308;25.288;2023-05-07T14:24:57;18.60;65.50
27072;DHT22;14613;46.308;25.288;2023-05-07T14:27:23;18.70;65.50
27072;DHT22;14613;46.308;25.288;2023-05-07T14:29:49;18.70;65.50
27072;DHT22;14613;46.308;25.288;2023-05-07T14:32:19;18.70;65.60
27072;DHT22;14613;46.308;25.288;2023-05-07T14:34:46;18.70;65.80
27072;DHT22;14613;46.308;25.288;2023-05-07T14:37:12;18.70;65.90
27072;DHT22;14613;46.308;25.288;2023-05-07T14:39:38;18.70;65.80
27072;DHT22;14613;46.308;25.288;2023-05-07T14:42:04;18.80;65.70
27072;DHT22;14613;46.308;25.288;2023-05-07T14:44:31;18.80;65.60
27072;DHT22;14613;46.308;25.288;2023-05-07T14:46:57;18.90;65.60
27072;DHT22;14613;46.308;25.288;2023-05-07T14:49:22;19.00;65.50
27072;DHT22;14613;46.308;25.288;2023-05-07T14:51:49;19.00;65.30
27072;DHT22;14613;46.308;25.288;2023-05-07T14:54:15;19.10;65.20
27072;DHT22;14613;46.308;25.288;2023-05-07T14:56:42;19.10;66.00
27072;DHT22;14613;46.308;25.288;2023-05-07T14:59:08;19.20;65.00
27072;DHT22;14613;46.308;25.288;2023-05-07T15:01:35;19.20;64.90
27072;DHT22;14613;46.308;25.288;2023-05-07T15:04:03;19.20;64.70
27072;DHT22;14613;46.308;25.288;2023-05-07T15:06:29;19.30;64.60
27072;DHT22;14613;46.308;25.288;2023-05-07T15:08:55;19.40;64.40
27072;DHT22;14613;46.308;25.288;2023-05-07T15:11:21;19.50;64.30
27072;DHT22;14613;46.308;25.288;2023-05-07T15:13:47;19.60;64.10
27072;DHT22;14613;46.308;25.288;2023-05-07T15:16:13;19.70;63.90
27072;DHT22;14613;46.308;25.288;2023-05-07T15:18:38;19.70;63.50
27072;DHT22;14613;46.308;25.288;2023-05-07T15:21:04;19.70;63.40
27072;DHT22;14613;46.308;25.288;2023-05-07T15:23:30;19.70;63.40
27072;DHT22;14613;46.308;25.288;2023-05-07T15:25:56;19.70;63.40
27072;DHT22;14613;46.308;25.288;2023-05-07T15:28:22;19.80;63.20
27072;DHT22;14613;46.308;25.288;2023-05-07T15:30:49;19.80;63.00
27072;DHT22;14613;46.308;25.288;2023-05-07T15:33:15;19.90;62.70